sensor_id;sensor_type;location;lat;lon;timestamp;P1;durP1;ratioP1;P2;durP2;ratioP2
11113;SDS011;5610;52.154;9.198;2022-12-18T00:01:17;25.58;;;17.70;;
11113;SDS011;5610;52.154;9.198;2022-12-18T00:04:05;25.45;;;17.30;;
11113;SDS011;5610;52.154;9.198;2022-12-18T00:06:52;25.90;;;18.17;;
11113;SDS011;5610;52.154;9.198;2022-12-18T00:09:37;22.42;;;17.80;;
11113;SDS011;5610;52.154;9.198;2022-12-18T00:12:24;21.13;;;15.95;;
11113;SDS011;5610;52.154;9.198;2022-12-18T00:15:09;23.90;;;16.52;;
11113;SDS011;5610;52.154;9.198;2022-12-18T00:17:55;22.58;;;15.18;;
11113;SDS011;5610;52.154;9.198;2022-12-18T00:20:40;22.23;;;14.80;;
11113;SDS011;5610;52.154;9.198;2022-12-18T00:23:26;22.90;;;15.07;;
11113;SDS011;5610;52.154;9.198;2022-12-18T00:26:12;17.17;;;13.70;;
11113;SDS011;5610;52.154;9.198;2022-12-18T00:29:02;22.45;;;15.80;;
11113;SDS011;5610;52.154;9.198;2022-12-18T00:31:49;25.27;;;16.92;;
11113;SDS011;5610;52.154;9.198;2022-12-18T00:34:34;22.00;;;16.63;;
11113;SDS011;5610;52.154;9.198;2022-12-18T00:37:20;23.50;;;17.52;;
11113;SDS011;5610;52.154;9.198;2022-12-18T00:40:09;20.20;;;16.98;;
11113;SDS011;5610;52.154;9.198;2022-12-18T00:42:55;22.75;;;18.02;;
11113;SDS011;5610;52.154;9.198;2022-12-18T00:45:41;23.90;;;16.95;;
11113;SDS011;5610;52.154;9.198;2022-12-18T00:48:26;23.45;;;18.77;;
11113;SDS011;5610;52.154;9.198;2022-12-18T00:51:12;23.10;;;18.15;;
11113;SDS011;5610;52.154;9.198;2022-12-18T00:53:57;26.55;;;17.38;;
11113;SDS011;5610;52.154;9.198;2022-12-18T00:56:42;25.48;;;17.58;;
11113;SDS011;5610;52.154;9.198;2022-12-18T00:59:28;25.23;;;17.45;;
11113;SDS011;5610;52.154;9.198;2022-12-18T01:02:15;22.02;;;17.02;;
11113;SDS011;5610;52.154;9.198;2022-12-18T01:05:00;21.27;;;15.85;;
11113;SDS011;5610;52.154;9.198;2022-12-18T01:07:46;22.02;;;16.25;;
11113;SDS011;5610;52.154;9.198;2022-12-18T01:10:31;25.63;;;18.63;;
11113;SDS011;5610;52.154;9.198;2022-12-18T01:13:16;22.25;;;16.40;;
11113;SDS011;5610;52.154;9.198;2022-12-18T01:16:02;22.90;;;17.10;;
11113;SDS011;5610;52.154;9.198;2022-12-18T01:18:50;23.50;;;18.23;;
11113;SDS011;5610;52.154;9.198;2022-12-18T01:21:37;24.65;;;18.80;;
11113;SDS011;5610;52.154;9.198;2022-12-18T01:24:22;27.27;;;19.25;;
11113;SDS011;5610;52.154;9.198;2022-12-18T01:27:08;26.60;;;18.73;;
11113;SDS011;5610;52.154;9.198;2022-12-18T01:29:53;23.55;;;17.38;;
11113;SDS011;5610;52.154;9.198;2022-12-18T01:32:38;27.92;;;19.05;;
11113;SDS011;5610;52.154;9.198;2022-12-18T01:35:25;21.67;;;16.67;;
11113;SDS011;5610;52.154;9.198;2022-12-18T01:38:11;25.95;;;18.27;;
11113;SDS011;5610;52.154;9.198;2022-12-18T01:40:56;22.73;;;16.83;;
11113;SDS011;5610;52.154;9.198;2022-12-18T01:43:47;22.60;;;17.38;;
11113;SDS011;5610;52.154;9.198;2022-12-18T01:46:34;25.38;;;17.50;;
11113;SDS011;5610;52.154;9.198;2022-12-18T01:49:19;26.60;;;18.15;;
11113;SDS011;5610;52.154;9.198;2022-12-18T01:52:06;21.10;;;16.25;;
11113;SDS011;5610;52.154;9.198;2022-12-18T01:54:52;23.60;;;15.88;;
11113;SDS011;5610;52.154;9.198;2022-12-18T01:57:38;21.52;;;17.20;;
11113;SDS011;5610;52.154;9.198;2022-12-18T02:00:25;21.95;;;16.20;;
11113;SDS011;5610;52.154;9.198;2022-12-18T02:03:11;23.75;;;16.30;;
11113;SDS011;5610;52.154;9.198;2022-12-18T02:05:57;24.27;;;17.70;;
11113;SDS011;5610;52.154;9.198;2022-12-18T02:08:56;27.88;;;18.83;;
11113;SDS011;5610;52.154;9.198;2022-12-18T02:11:48;22.20;;;17.70;;
11113;SDS011;5610;52.154;9.198;2022-12-18T02:14:38;24.20;;;18.98;;
11113;SDS011;5610;52.154;9.198;2022-12-18T02:17:28;25.30;;;18.75;;
11113;SDS011;5610;52.154;9.198;2022-12-18T02:20:20;24.08;;;18.80;;
11113;SDS011;5610;52.154;9.198;2022-12-18T02:23:11;25.52;;;17.65;;
11113;SDS011;5610;52.154;9.198;2022-12-18T02:26:09;24.88;;;18.00;;
11113;SDS011;5610;52.154;9.198;2022-12-18T02:29:02;20.60;;;16.83;;
11113;SDS011;5610;52.154;9.198;2022-12-18T02:31:54;22.23;;;17.15;;
11113;SDS011;5610;52.154;9.198;2022-12-18T02:34:44;24.35;;;18.30;;
11113;SDS011;5610;52.154;9.198;2022-12-18T02:37:33;22.95;;;17.73;;
11113;SDS011;5610;52.154;9.198;2022-12-18T02:40:23;22.27;;;17.75;;
11113;SDS011;5610;52.154;9.198;2022-12-18T02:43:13;24.08;;;18.45;;
11113;SDS011;5610;52.154;9.198;2022-12-18T02:46:00;27.48;;;20.85;;
11113;SDS011;5610;52.154;9.198;2022-12-18T02:49:05;24.70;;;18.50;;
11113;SDS011;5610;52.154;9.198;2022-12-18T02:52:00;24.85;;;19.33;;
11113;SDS011;5610;52.154;9.198;2022-12-18T02:54:54;24.00;;;18.88;;
11113;SDS011;5610;52.154;9.198;2022-12-18T02:57:48;22.98;;;18.88;;
11113;SDS011;5610;52.154;9.198;2022-12-18T03:00:43;25.63;;;19.23;;
11113;SDS011;5610;52.154;9.198;2022-12-18T03:03:37;27.70;;;18.33;;
11113;SDS011;5610;52.154;9.198;2022-12-18T03:06:27;23.88;;;18.15;;
11113;SDS011;5610;52.154;9.198;2022-12-18T03:09:17;21.38;;;18.63;;
11113;SDS011;5610;52.154;9.198;2022-12-18T03:12:07;25.23;;;18.40;;
11113;SDS011;5610;52.154;9.198;2022-12-18T03:15:08;23.23;;;17.95;;
11113;SDS011;5610;52.154;9.198;2022-12-18T03:17:59;24.17;;;16.35;;
11113;SDS011;5610;52.154;9.198;2022-12-18T03:20:49;29.05;;;18.58;;
11113;SDS011;5610;52.154;9.198;2022-12-18T03:23:39;25.00;;;17.95;;
11113;SDS011;5610;52.154;9.198;2022-12-18T03:26:28;23.95;;;17.27;;
11113;SDS011;5610;52.154;9.198;2022-12-18T03:29:18;23.98;;;16.83;;
11113;SDS011;5610;52.154;9.198;2022-12-18T03:32:10;21.52;;;17.48;;
11113;SDS011;5610;52.154;9.198;2022-12-18T03:34:59;25.88;;;17.70;;
11113;SDS011;5610;52.154;9.198;2022-12-18T03:37:50;18.20;;;15.20;;
11113;SDS011;5610;52.154;9.198;2022-12-18T03:40:39;19.20;;;15.32;;
11113;SDS011;5610;52.154;9.198;2022-12-18T03:43:35;22.27;;;16.02;;
11113;SDS011;5610;52.154;9.198;2022-12-18T03:46:28;24.60;;;16.13;;
11113;SDS011;5610;52.154;9.198;2022-12-18T03:49:19;22.65;;;16.75;;
11113;SDS011;5610;52.154;9.198;2022-12-18T03:52:15;21.45;;;15.10;;
11113;SDS011;5610;52.154;9.198;2022-12-18T03:55:06;23.23;;;15.10;;
11113;SDS011;5610;52.154;9.198;2022-12-18T03:57:54;19.75;;;14.68;;
11113;SDS011;5610;52.154;9.198;2022-12-18T04:00:42;18.63;;;14.93;;
11113;SDS011;5610;52.154;9.198;2022-12-18T04:03:29;18.58;;;14.80;;
11113;SDS011;5610;52.154;9.198;2022-12-18T04:06:16;21.08;;;14.70;;
11113;SDS011;5610;52.154;9.198;2022-12-18T04:09:04;20.83;;;15.10;;
11113;SDS011;5610;52.154;9.198;2022-12-18T04:11:54;17.50;;;13.38;;
11113;SDS011;5610;52.154;9.198;2022-12-18T04:14:40;16.30;;;14.13;;
11113;SDS011;5610;52.154;9.198;2022-12-18T04:17:27;21.55;;;15.30;;
11113;SDS011;5610;52.154;9.198;2022-12-18T04:20:12;22.00;;;15.13;;
11113;SDS011;5610;52.154;9.198;2022-12-18T04:23:00;19.75;;;15.38;;
11113;SDS011;5610;52.154;9.198;2022-12-18T04:25:47;19.23;;;13.63;;
11113;SDS011;5610;52.154;9.198;2022-12-18T04:28:40;17.73;;;14.45;;
11113;SDS011;5610;52.154;9.198;2022-12-18T04:31:26;20.48;;;14.60;;
11113;SDS011;5610;52.154;9.198;2022-12-18T04:34:12;22.05;;;14.07;;
11113;SDS011;5610;52.154;9.198;2022-12-18T04:37:05;19.55;;;14.15;;
11113;SDS011;5610;52.154;9.198;2022-12-18T04:39:50;17.38;;;14.23;;
11113;SDS011;5610;52.154;9.198;2022-12-18T04:42:47;17.33;;;14.52;;
11113;SDS011;5610;52.154;9.198;2022-12-18T04:45:33;20.30;;;14.90;;
11113;SDS011;5610;52.154;9.198;2022-12-18T04:48:18;18.85;;;13.70;;
11113;SDS011;5610;52.154;9.198;2022-12-18T04:51:04;18.15;;;14.20;;
11113;SDS011;5610;52.154;9.198;2022-12-18T04:53:50;18.27;;;14.52;;
11113;SDS011;5610;52.154;9.198;2022-12-18T04:56:36;16.75;;;13.75;;
11113;SDS011;5610;52.154;9.198;2022-12-18T04:59:22;18.20;;;14.20;;
11113;SDS011;5610;52.154;9.198;2022-12-18T05:02:08;21.70;;;15.25;;
11113;SDS011;5610;52.154;9.198;2022-12-18T05:04:53;17.50;;;14.47;;
11113;SDS011;5610;52.154;9.198;2022-12-18T05:07:39;18.25;;;15.27;;
11113;SDS011;5610;52.154;9.198;2022-12-18T05:10:24;20.58;;;15.82;;
11113;SDS011;5610;52.154;9.198;2022-12-18T05:13:09;20.17;;;15.77;;
11113;SDS011;5610;52.154;9.198;2022-12-18T05:15:56;19.35;;;14.75;;
11113;SDS011;5610;52.154;9.198;2022-12-18T05:18:41;24.58;;;14.85;;
11113;SDS011;5610;52.154;9.198;2022-12-18T05:21:27;21.08;;;16.40;;
11113;SDS011;5610;52.154;9.198;2022-12-18T05:24:12;22.02;;;14.23;;
11113;SDS011;5610;52.154;9.198;2022-12-18T05:26:58;18.20;;;13.63;;
11113;SDS011;5610;52.154;9.198;2022-12-18T05:29:43;18.23;;;14.30;;
11113;SDS011;5610;52.154;9.198;2022-12-18T05:32:30;18.23;;;14.20;;
11113;SDS011;5610;52.154;9.198;2022-12-18T05:35:15;21.08;;;16.92;;
11113;SDS011;5610;52.154;9.198;2022-12-18T05:38:00;17.05;;;15.15;;
11113;SDS011;5610;52.154;9.198;2022-12-18T05:40:47;19.90;;;15.02;;
11113;SDS011;5610;52.154;9.198;2022-12-18T05:43:33;19.30;;;14.73;;
11113;SDS011;5610;52.154;9.198;2022-12-18T05:46:19;20.10;;;14.82;;
11113;SDS011;5610;52.154;9.198;2022-12-18T05:49:06;15.57;;;13.65;;
11113;SDS011;5610;52.154;9.198;2022-12-18T05:51:51;19.38;;;14.75;;
11113;SDS011;5610;52.154;9.198;2022-12-18T05:54:36;20.10;;;14.48;;
11113;SDS011;5610;52.154;9.198;2022-12-18T05:57:22;17.45;;;14.55;;
11113;SDS011;5610;52.154;9.198;2022-12-18T06:00:08;17.23;;;13.40;;
11113;SDS011;5610;52.154;9.198;2022-12-18T06:02:56;18.40;;;14.55;;
11113;SDS011;5610;52.154;9.198;2022-12-18T06:05:43;19.60;;;16.05;;
11113;SDS011;5610;52.154;9.198;2022-12-18T06:08:29;16.13;;;13.40;;
11113;SDS011;5610;52.154;9.198;2022-12-18T06:11:16;22.58;;;15.93;;
11113;SDS011;5610;52.154;9.198;2022-12-18T06:14:03;18.48;;;15.43;;
11113;SDS011;5610;52.154;9.198;2022-12-18T06:16:50;17.65;;;14.75;;
11113;SDS011;5610;52.154;9.198;2022-12-18T06:19:35;18.58;;;13.57;;
11113;SDS011;5610;52.154;9.198;2022-12-18T06:22:22;19.05;;;14.18;;
11113;SDS011;5610;52.154;9.198;2022-12-18T06:25:08;16.33;;;13.52;;
11113;SDS011;5610;52.154;9.198;2022-12-18T06:27:54;17.70;;;15.15;;
11113;SDS011;5610;52.154;9.198;2022-12-18T06:30:39;18.92;;;14.00;;
11113;SDS011;5610;52.154;9.198;2022-12-18T06:33:25;19.35;;;14.23;;
11113;SDS011;5610;52.154;9.198;2022-12-18T06:36:12;18.10;;;15.25;;
11113;SDS011;5610;52.154;9.198;2022-12-18T06:39:00;16.23;;;14.32;;
11113;SDS011;5610;52.154;9.198;2022-12-18T06:41:45;15.73;;;13.18;;
11113;SDS011;5610;52.154;9.198;2022-12-18T06:44:31;17.33;;;12.30;;
11113;SDS011;5610;52.154;9.198;2022-12-18T06:47:16;17.35;;;12.55;;
11113;SDS011;5610;52.154;9.198;2022-12-18T06:50:01;15.20;;;13.52;;
11113;SDS011;5610;52.154;9.198;2022-12-18T06:52:47;22.58;;;13.90;;
11113;SDS011;5610;52.154;9.198;2022-12-18T06:55:33;18.15;;;12.60;;
11113;SDS011;5610;52.154;9.198;2022-12-18T06:58:19;18.38;;;13.32;;
11113;SDS011;5610;52.154;9.198;2022-12-18T07:01:07;15.82;;;13.05;;
11113;SDS011;5610;52.154;9.198;2022-12-18T07:03:54;16.88;;;13.00;;
11113;SDS011;5610;52.154;9.198;2022-12-18T07:06:41;17.52;;;14.57;;
11113;SDS011;5610;52.154;9.198;2022-12-18T07:09:26;16.20;;;14.07;;
11113;SDS011;5610;52.154;9.198;2022-12-18T07:12:12;17.85;;;12.30;;
11113;SDS011;5610;52.154;9.198;2022-12-18T07:14:58;17.60;;;14.45;;
11113;SDS011;5610;52.154;9.198;2022-12-18T07:17:43;19.77;;;14.70;;
11113;SDS011;5610;52.154;9.198;2022-12-18T07:20:28;16.48;;;13.60;;
11113;SDS011;5610;52.154;9.198;2022-12-18T07:23:13;19.08;;;15.25;;
11113;SDS011;5610;52.154;9.198;2022-12-18T07:26:00;18.50;;;15.05;;
11113;SDS011;5610;52.154;9.198;2022-12-18T07:28:48;17.88;;;13.27;;
11113;SDS011;5610;52.154;9.198;2022-12-18T07:31:34;20.77;;;14.52;;
11113;SDS011;5610;52.154;9.198;2022-12-18T07:34:19;18.75;;;13.68;;
11113;SDS011;5610;52.154;9.198;2022-12-18T07:37:05;19.13;;;14.23;;
11113;SDS011;5610;52.154;9.198;2022-12-18T07:39:50;18.08;;;14.13;;
11113;SDS011;5610;52.154;9.198;2022-12-18T07:42:35;17.17;;;12.48;;
11113;SDS011;5610;52.154;9.198;2022-12-18T07:45:22;18.85;;;13.88;;
11113;SDS011;5610;52.154;9.198;2022-12-18T07:48:07;18.98;;;13.68;;
11113;SDS011;5610;52.154;9.198;2022-12-18T07:50:53;17.85;;;12.88;;
11113;SDS011;5610;52.154;9.198;2022-12-18T07:53:38;18.70;;;13.88;;
11113;SDS011;5610;52.154;9.198;2022-12-18T07:56:24;17.48;;;13.85;;
11113;SDS011;5610;52.154;9.198;2022-12-18T07:59:10;14.75;;;12.95;;
11113;SDS011;5610;52.154;9.198;2022-12-18T08:01:56;18.58;;;13.80;;
11113;SDS011;5610;52.154;9.198;2022-12-18T08:04:42;16.33;;;13.13;;
11113;SDS011;5610;52.154;9.198;2022-12-18T08:07:27;20.25;;;14.75;;
11113;SDS011;5610;52.154;9.198;2022-12-18T08:10:13;26.08;;;17.55;;
11113;SDS011;5610;52.154;9.198;2022-12-18T08:12:58;21.92;;;16.73;;
11113;SDS011;5610;52.154;9.198;2022-12-18T08:15:44;20.10;;;14.65;;
11113;SDS011;5610;52.154;9.198;2022-12-18T08:18:33;16.00;;;12.40;;
11113;SDS011;5610;52.154;9.198;2022-12-18T08:21:19;17.50;;;13.05;;
11113;SDS011;5610;52.154;9.198;2022-12-18T08:24:06;14.55;;;12.57;;
11113;SDS011;5610;52.154;9.198;2022-12-18T08:26:53;15.95;;;11.70;;
11113;SDS011;5610;52.154;9.198;2022-12-18T08:29:38;20.20;;;13.38;;
11113;SDS011;5610;52.154;9.198;2022-12-18T08:32:24;14.35;;;11.55;;
11113;SDS011;5610;52.154;9.198;2022-12-18T08:35:11;15.55;;;11.98;;
11113;SDS011;5610;52.154;9.198;2022-12-18T08:37:56;16.08;;;12.55;;
11113;SDS011;5610;52.154;9.198;2022-12-18T08:40:41;16.13;;;12.88;;
11113;SDS011;5610;52.154;9.198;2022-12-18T08:43:27;15.00;;;12.50;;
11113;SDS011;5610;52.154;9.198;2022-12-18T08:46:27;14.55;;;12.27;;
11113;SDS011;5610;52.154;9.198;2022-12-18T08:49:16;15.43;;;12.10;;
11113;SDS011;5610;52.154;9.198;2022-12-18T08:52:03;13.88;;;11.57;;
11113;SDS011;5610;52.154;9.198;2022-12-18T08:54:48;16.35;;;12.68;;
11113;SDS011;5610;52.154;9.198;2022-12-18T08:57:34;17.85;;;13.05;;
11113;SDS011;5610;52.154;9.198;2022-12-18T09:00:19;13.93;;;12.43;;
11113;SDS011;5610;52.154;9.198;2022-12-18T09:03:05;14.88;;;11.30;;
11113;SDS011;5610;52.154;9.198;2022-12-18T09:05:50;17.48;;;11.15;;
11113;SDS011;5610;52.154;9.198;2022-12-18T09:08:37;15.52;;;10.68;;
11113;SDS011;5610;52.154;9.198;2022-12-18T09:11:23;15.90;;;11.73;;
11113;SDS011;5610;52.154;9.198;2022-12-18T09:14:09;13.35;;;11.50;;
11113;SDS011;5610;52.154;9.198;2022-12-18T09:16:54;13.93;;;10.73;;
11113;SDS011;5610;52.154;9.198;2022-12-18T09:19:40;15.13;;;11.80;;
11113;SDS011;5610;52.154;9.198;2022-12-18T09:22:25;19.38;;;11.05;;
11113;SDS011;5610;52.154;9.198;2022-12-18T09:25:12;14.07;;;11.27;;
11113;SDS011;5610;52.154;9.198;2022-12-18T09:27:57;14.23;;;11.88;;
11113;SDS011;5610;52.154;9.198;2022-12-18T09:30:44;12.75;;;11.40;;
11113;SDS011;5610;52.154;9.198;2022-12-18T09:33:31;14.18;;;11.20;;
11113;SDS011;5610;52.154;9.198;2022-12-18T09:36:16;12.65;;;10.70;;
11113;SDS011;5610;52.154;9.198;2022-12-18T09:39:02;13.13;;;9.93;;
11113;SDS011;5610;52.154;9.198;2022-12-18T09:41:51;12.13;;;9.90;;
11113;SDS011;5610;52.154;9.198;2022-12-18T09:44:39;12.18;;;9.38;;
11113;SDS011;5610;52.154;9.198;2022-12-18T09:47:30;13.05;;;8.77;;
11113;SDS011;5610;52.154;9.198;2022-12-18T09:50:23;11.77;;;9.77;;
11113;SDS011;5610;52.154;9.198;2022-12-18T09:53:13;9.95;;;8.07;;
11113;SDS011;5610;52.154;9.198;2022-12-18T09:56:02;11.35;;;9.15;;
11113;SDS011;5610;52.154;9.198;2022-12-18T09:58:52;10.15;;;9.10;;
11113;SDS011;5610;52.154;9.198;2022-12-18T10:01:42;13.80;;;10.55;;
11113;SDS011;5610;52.154;9.198;2022-12-18T10:04:28;11.55;;;9.80;;
11113;SDS011;5610;52.154;9.198;2022-12-18T10:07:15;15.02;;;9.90;;
11113;SDS011;5610;52.154;9.198;2022-12-18T10:10:07;14.40;;;11.75;;
11113;SDS011;5610;52.154;9.198;2022-12-18T10:13:07;16.50;;;11.60;;
11113;SDS011;5610;52.154;9.198;2022-12-18T10:16:09;13.50;;;11.27;;
11113;SDS011;5610;52.154;9.198;2022-12-18T10:19:02;15.68;;;13.07;;
11113;SDS011;5610;52.154;9.198;2022-12-18T10:22:02;18.02;;;13.38;;
11113;SDS011;5610;52.154;9.198;2022-12-18T10:24:58;13.80;;;11.32;;
11113;SDS011;5610;52.154;9.198;2022-12-18T10:27:48;13.10;;;11.50;;
11113;SDS011;5610;52.154;9.198;2022-12-18T10:30:37;15.02;;;11.50;;
11113;SDS011;5610;52.154;9.198;2022-12-18T10:33:28;14.77;;;12.48;;
11113;SDS011;5610;52.154;9.198;2022-12-18T10:36:15;13.93;;;11.35;;
11113;SDS011;5610;52.154;9.198;2022-12-18T10:39:07;13.55;;;11.25;;
11113;SDS011;5610;52.154;9.198;2022-12-18T10:42:09;15.18;;;11.18;;
11113;SDS011;5610;52.154;9.198;2022-12-18T10:44:59;13.32;;;10.82;;
11113;SDS011;5610;52.154;9.198;2022-12-18T10:47:47;12.02;;;10.27;;
11113;SDS011;5610;52.154;9.198;2022-12-18T10:50:36;14.48;;;10.52;;
11113;SDS011;5610;52.154;9.198;2022-12-18T10:53:23;12.90;;;10.00;;
11113;SDS011;5610;52.154;9.198;2022-12-18T10:56:10;12.48;;;10.07;;
11113;SDS011;5610;52.154;9.198;2022-12-18T10:58:57;15.35;;;10.38;;
11113;SDS011;5610;52.154;9.198;2022-12-18T11:01:45;12.63;;;11.43;;
11113;SDS011;5610;52.154;9.198;2022-12-18T11:04:32;10.85;;;9.70;;
11113;SDS011;5610;52.154;9.198;2022-12-18T11:07:20;11.02;;;9.60;;
11113;SDS011;5610;52.154;9.198;2022-12-18T11:10:15;11.05;;;9.80;;
11113;SDS011;5610;52.154;9.198;2022-12-18T11:13:11;13.23;;;10.05;;
11113;SDS011;5610;52.154;9.198;2022-12-18T11:16:01;11.55;;;10.35;;
11113;SDS011;5610;52.154;9.198;2022-12-18T11:18:46;11.27;;;10.07;;
11113;SDS011;5610;52.154;9.198;2022-12-18T11:21:32;10.20;;;9.13;;
11113;SDS011;5610;52.154;9.198;2022-12-18T11:24:27;12.25;;;9.00;;
11113;SDS011;5610;52.154;9.198;2022-12-18T11:27:15;31.15;;;21.02;;
11113;SDS011;5610;52.154;9.198;2022-12-18T11:30:09;43.80;;;23.83;;
11113;SDS011;5610;52.154;9.198;2022-12-18T11:33:05;29.70;;;21.30;;
11113;SDS011;5610;52.154;9.198;2022-12-18T11:35:55;20.70;;;15.85;;
11113;SDS011;5610;52.154;9.198;2022-12-18T11:38:46;12.60;;;10.77;;
11113;SDS011;5610;52.154;9.198;2022-12-18T11:41:37;10.73;;;9.63;;
11113;SDS011;5610;52.154;9.198;2022-12-18T11:44:46;10.73;;;9.63;;
11113;SDS011;5610;52.154;9.198;2022-12-18T11:47:37;13.70;;;10.80;;
11113;SDS011;5610;52.154;9.198;2022-12-18T11:50:28;11.55;;;9.05;;
11113;SDS011;5610;52.154;9.198;2022-12-18T11:53:17;11.15;;;9.98;;
11113;SDS011;5610;52.154;9.198;2022-12-18T11:56:05;12.45;;;9.13;;
11113;SDS011;5610;52.154;9.198;2022-12-18T11:59:03;9.85;;;8.48;;
11113;SDS011;5610;52.154;9.198;2022-12-18T12:01:58;15.13;;;10.25;;
11113;SDS011;5610;52.154;9.198;2022-12-18T12:05:02;12.50;;;10.77;;
11113;SDS011;5610;52.154;9.198;2022-12-18T12:08:03;13.10;;;10.27;;
11113;SDS011;5610;52.154;9.198;2022-12-18T12:10:58;13.77;;;10.20;;
11113;SDS011;5610;52.154;9.198;2022-12-18T12:14:01;13.50;;;9.30;;
11113;SDS011;5610;52.154;9.198;2022-12-18T12:17:01;12.05;;;8.85;;
11113;SDS011;5610;52.154;9.198;2022-12-18T12:19:57;9.07;;;8.13;;
11113;SDS011;5610;52.154;9.198;2022-12-18T12:22:53;8.95;;;7.80;;
11113;SDS011;5610;52.154;9.198;2022-12-18T12:25:44;13.02;;;8.32;;
11113;SDS011;5610;52.154;9.198;2022-12-18T12:28:42;10.82;;;7.90;;
11113;SDS011;5610;52.154;9.198;2022-12-18T12:31:49;9.75;;;8.50;;
11113;SDS011;5610;52.154;9.198;2022-12-18T12:34:44;12.40;;;9.25;;
11113;SDS011;5610;52.154;9.198;2022-12-18T12:37:39;9.43;;;8.43;;
11113;SDS011;5610;52.154;9.198;2022-12-18T12:40:34;10.05;;;7.78;;
11113;SDS011;5610;52.154;9.198;2022-12-18T12:43:25;14.23;;;8.25;;
11113;SDS011;5610;52.154;9.198;2022-12-18T12:46:14;11.57;;;8.30;;
11113;SDS011;5610;52.154;9.198;2022-12-18T12:49:04;8.70;;;7.72;;
11113;SDS011;5610;52.154;9.198;2022-12-18T12:51:58;10.63;;;8.25;;
11113;SDS011;5610;52.154;9.198;2022-12-18T12:54:48;12.38;;;9.30;;
11113;SDS011;5610;52.154;9.198;2022-12-18T12:57:35;10.63;;;7.47;;
11113;SDS011;5610;52.154;9.198;2022-12-18T13:00:23;9.02;;;7.80;;
11113;SDS011;5610;52.154;9.198;2022-12-18T13:03:14;10.35;;;8.57;;
11113;SDS011;5610;52.154;9.198;2022-12-18T13:06:11;10.50;;;8.80;;
11113;SDS011;5610;52.154;9.198;2022-12-18T13:09:01;13.23;;;11.95;;
11113;SDS011;5610;52.154;9.198;2022-12-18T13:11:47;11.35;;;9.98;;
11113;SDS011;5610;52.154;9.198;2022-12-18T13:14:50;11.65;;;8.95;;
11113;SDS011;5610;52.154;9.198;2022-12-18T13:17:35;10.90;;;8.20;;
11113;SDS011;5610;52.154;9.198;2022-12-18T13:20:21;11.85;;;8.80;;
11113;SDS011;5610;52.154;9.198;2022-12-18T13:23:25;12.20;;;9.40;;
11113;SDS011;5610;52.154;9.198;2022-12-18T13:26:29;11.32;;;9.35;;
11113;SDS011;5610;52.154;9.198;2022-12-18T13:29:40;10.43;;;8.57;;
11113;SDS011;5610;52.154;9.198;2022-12-18T13:32:26;12.35;;;10.13;;
11113;SDS011;5610;52.154;9.198;2022-12-18T13:38:32;10.90;;;9.32;;
11113;SDS011;5610;52.154;9.198;2022-12-18T13:41:22;12.55;;;10.15;;
11113;SDS011;5610;52.154;9.198;2022-12-18T13:44:10;11.93;;;10.00;;
11113;SDS011;5610;52.154;9.198;2022-12-18T13:46:57;11.27;;;9.35;;
11113;SDS011;5610;52.154;9.198;2022-12-18T13:49:43;13.20;;;9.50;;
11113;SDS011;5610;52.154;9.198;2022-12-18T13:52:34;13.38;;;10.23;;
11113;SDS011;5610;52.154;9.198;2022-12-18T13:55:25;12.63;;;10.45;;
11113;SDS011;5610;52.154;9.198;2022-12-18T13:58:11;13.65;;;11.32;;
11113;SDS011;5610;52.154;9.198;2022-12-18T14:00:57;11.93;;;10.65;;
11113;SDS011;5610;52.154;9.198;2022-12-18T14:03:42;11.95;;;8.75;;
11113;SDS011;5610;52.154;9.198;2022-12-18T14:06:28;10.90;;;9.40;;
11113;SDS011;5610;52.154;9.198;2022-12-18T14:09:15;10.52;;;9.35;;
11113;SDS011;5610;52.154;9.198;2022-12-18T14:12:05;9.68;;;8.68;;
11113;SDS011;5610;52.154;9.198;2022-12-18T14:15:14;10.85;;;9.00;;
11113;SDS011;5610;52.154;9.198;2022-12-18T14:18:14;12.02;;;9.57;;
11113;SDS011;5610;52.154;9.198;2022-12-18T14:21:05;12.82;;;10.15;;
11113;SDS011;5610;52.154;9.198;2022-12-18T14:24:02;10.88;;;9.05;;
11113;SDS011;5610;52.154;9.198;2022-12-18T14:26:49;10.50;;;9.32;;
11113;SDS011;5610;52.154;9.198;2022-12-18T14:29:36;11.68;;;9.73;;
11113;SDS011;5610;52.154;9.198;2022-12-18T14:32:27;11.73;;;8.77;;
11113;SDS011;5610;52.154;9.198;2022-12-18T14:35:13;9.90;;;7.75;;
11113;SDS011;5610;52.154;9.198;2022-12-18T14:38:09;12.43;;;8.68;;
11113;SDS011;5610;52.154;9.198;2022-12-18T14:41:10;12.13;;;8.90;;
11113;SDS011;5610;52.154;9.198;2022-12-18T14:43:56;10.93;;;9.30;;
11113;SDS011;5610;52.154;9.198;2022-12-18T14:46:52;10.15;;;9.05;;
11113;SDS011;5610;52.154;9.198;2022-12-18T14:49:37;11.65;;;9.27;;
11113;SDS011;5610;52.154;9.198;2022-12-18T14:52:27;10.38;;;8.15;;
11113;SDS011;5610;52.154;9.198;2022-12-18T14:55:16;9.77;;;8.27;;
11113;SDS011;5610;52.154;9.198;2022-12-18T14:58:03;10.73;;;8.88;;
11113;SDS011;5610;52.154;9.198;2022-12-18T15:00:48;9.82;;;8.90;;
11113;SDS011;5610;52.154;9.198;2022-12-18T15:03:35;9.90;;;8.90;;
11113;SDS011;5610;52.154;9.198;2022-12-18T15:06:31;13.00;;;10.23;;
11113;SDS011;5610;52.154;9.198;2022-12-18T15:09:21;11.88;;;10.55;;
11113;SDS011;5610;52.154;9.198;2022-12-18T15:12:19;12.68;;;10.75;;
11113;SDS011;5610;52.154;9.198;2022-12-18T15:18:32;13.05;;;10.30;;
11113;SDS011;5610;52.154;9.198;2022-12-18T15:21:21;12.50;;;9.88;;
11113;SDS011;5610;52.154;9.198;2022-12-18T15:24:13;11.88;;;10.45;;
11113;SDS011;5610;52.154;9.198;2022-12-18T15:27:03;25.80;;;18.15;;
11113;SDS011;5610;52.154;9.198;2022-12-18T15:29:59;17.23;;;13.25;;
11113;SDS011;5610;52.154;9.198;2022-12-18T15:32:45;14.90;;;13.45;;
11113;SDS011;5610;52.154;9.198;2022-12-18T15:35:31;15.98;;;11.48;;
11113;SDS011;5610;52.154;9.198;2022-12-18T15:38:17;17.77;;;12.93;;
11113;SDS011;5610;52.154;9.198;2022-12-18T15:41:03;19.70;;;10.70;;
11113;SDS011;5610;52.154;9.198;2022-12-18T15:43:49;18.08;;;11.85;;
11113;SDS011;5610;52.154;9.198;2022-12-18T15:46:35;15.30;;;10.40;;
11113;SDS011;5610;52.154;9.198;2022-12-18T15:49:20;12.05;;;9.50;;
11113;SDS011;5610;52.154;9.198;2022-12-18T15:52:05;9.48;;;8.50;;
11113;SDS011;5610;52.154;9.198;2022-12-18T15:54:52;13.30;;;10.27;;
11113;SDS011;5610;52.154;9.198;2022-12-18T15:57:55;15.45;;;10.63;;
11113;SDS011;5610;52.154;9.198;2022-12-18T16:00:41;15.80;;;10.50;;
11113;SDS011;5610;52.154;9.198;2022-12-18T16:03:26;12.88;;;10.68;;
11113;SDS011;5610;52.154;9.198;2022-12-18T16:06:12;21.30;;;14.77;;
11113;SDS011;5610;52.154;9.198;2022-12-18T16:08:57;21.65;;;16.40;;
11113;SDS011;5610;52.154;9.198;2022-12-18T16:11:44;28.40;;;19.00;;
11113;SDS011;5610;52.154;9.198;2022-12-18T16:14:31;18.15;;;13.10;;
11113;SDS011;5610;52.154;9.198;2022-12-18T16:17:17;22.67;;;16.35;;
11113;SDS011;5610;52.154;9.198;2022-12-18T16:20:03;22.45;;;14.15;;
11113;SDS011;5610;52.154;9.198;2022-12-18T16:22:49;11.07;;;9.77;;
11113;SDS011;5610;52.154;9.198;2022-12-18T16:25:34;12.25;;;10.98;;
11113;SDS011;5610;52.154;9.198;2022-12-18T16:28:21;11.80;;;9.98;;
11113;SDS011;5610;52.154;9.198;2022-12-18T16:31:06;12.45;;;9.27;;
11113;SDS011;5610;52.154;9.198;2022-12-18T16:36:57;11.05;;;8.73;;
11113;SDS011;5610;52.154;9.198;2022-12-18T16:39:43;9.93;;;8.63;;
11113;SDS011;5610;52.154;9.198;2022-12-18T16:42:29;9.73;;;8.40;;
11113;SDS011;5610;52.154;9.198;2022-12-18T16:45:16;9.88;;;8.52;;
11113;SDS011;5610;52.154;9.198;2022-12-18T16:48:02;9.35;;;8.35;;
11113;SDS011;5610;52.154;9.198;2022-12-18T16:50:47;9.85;;;8.02;;
11113;SDS011;5610;52.154;9.198;2022-12-18T16:53:33;11.88;;;8.00;;
11113;SDS011;5610;52.154;9.198;2022-12-18T16:56:18;13.18;;;10.13;;